createdAt,value
2018-12-04T00:01:10.311Z,8.75
2018-12-04T00:03:39.102Z,8.74
2018-12-04T00:06:07.714Z,8.72
2018-12-04T00:08:36.340Z,8.72
2018-12-04T00:11:04.994Z,8.73
2018-12-04T00:13:33.590Z,8.73
2018-12-04T00:16:02.260Z,8.73
2018-12-04T00:18:30.872Z,8.73
2018-12-04T00:20:59.638Z,8.74
2018-12-04T00:23:28.275Z,8.74
2018-12-04T00:25:56.904Z,8.73
2018-12-04T00:28:25.530Z,8.72
2018-12-04T00:30:54.141Z,8.71
2018-12-04T00:33:22.782Z,8.71
2018-12-04T00:35:51.402Z,8.70
2018-12-04T00:38:20.062Z,8.69
2018-12-04T00:40:48.680Z,8.66
2018-12-04T00:43:17.290Z,8.66
2018-12-04T00:45:45.924Z,8.64
2018-12-04T00:48:14.559Z,8.62
2018-12-04T00:50:43.255Z,8.60
2018-12-04T00:53:11.891Z,8.58
2018-12-04T00:55:41.019Z,8.56
2018-12-04T00:58:09.634Z,8.55
2018-12-04T01:00:38.913Z,8.53
2018-12-04T01:03:07.611Z,8.51
2018-12-04T01:05:36.223Z,8.50
2018-12-04T01:08:04.861Z,8.46
2018-12-04T01:10:33.506Z,8.45
2018-12-04T01:13:02.700Z,8.43
2018-12-04T01:15:31.322Z,8.42
2018-12-04T01:18:00.189Z,8.42
2018-12-04T01:20:28.811Z,8.42
2018-12-04T01:22:57.445Z,8.41
2018-12-04T01:25:26.094Z,8.42
2018-12-04T01:27:54.725Z,8.42
2018-12-04T01:30:23.366Z,8.41
2018-12-04T01:32:51.998Z,8.38
2018-12-04T01:35:20.670Z,8.38
2018-12-04T01:37:49.412Z,8.37
2018-12-04T01:40:18.182Z,8.35
2018-12-04T01:42:46.802Z,8.32
2018-12-04T01:45:16.549Z,8.30
2018-12-04T01:47:45.315Z,8.27
2018-12-04T01:50:15.459Z,8.24
2018-12-04T01:52:44.126Z,8.20
2018-12-04T01:55:12.909Z,8.18
2018-12-04T01:57:41.762Z,8.15
2018-12-04T02:00:10.987Z,8.12
2018-12-04T02:02:39.669Z,8.09
2018-12-04T02:05:08.319Z,8.07
2018-12-04T02:07:37.529Z,8.03
2018-12-04T02:10:08.347Z,8.00
2018-12-04T02:12:37.039Z,7.96
2018-12-04T02:15:05.918Z,7.93
2018-12-04T02:17:35.218Z,7.90
2018-12-04T02:20:04.064Z,7.87
2018-12-04T02:22:34.137Z,7.83
2018-12-04T02:25:03.339Z,7.79
2018-12-04T02:27:32.027Z,7.76
2018-12-04T02:30:00.629Z,7.71
2018-12-04T02:32:29.883Z,7.66
2018-12-04T02:34:59.115Z,7.61
2018-12-04T02:37:28.731Z,7.56
2018-12-04T02:39:58.749Z,7.53
2018-12-04T02:42:27.378Z,7.48
2018-12-04T02:44:56.124Z,7.44
2018-12-04T02:47:24.880Z,7.41
2018-12-04T02:49:53.592Z,7.36
2018-12-04T02:52:23.120Z,7.33
2018-12-04T02:54:53.052Z,7.29
2018-12-04T02:57:22.243Z,7.23
2018-12-04T02:59:50.973Z,7.17
2018-12-04T03:02:19.862Z,7.13
2018-12-04T03:04:49.310Z,7.09
2018-12-04T03:07:18.126Z,7.06
2018-12-04T03:09:47.706Z,7.02
2018-12-04T03:12:17.150Z,7.02
2018-12-04T03:14:45.738Z,6.99
2018-12-04T03:17:15.527Z,6.97
2018-12-04T03:19:44.761Z,6.94
2018-12-04T03:22:14.778Z,6.90
2018-12-04T03:24:43.501Z,6.88
2018-12-04T03:27:12.906Z,6.83
2018-12-04T03:29:41.750Z,6.78
2018-12-04T03:32:10.386Z,6.74
2018-12-04T03:34:40.397Z,6.71
2018-12-04T03:37:10.264Z,6.68
2018-12-04T03:39:38.970Z,6.64
2018-12-04T03:42:09.008Z,6.61
2018-12-04T03:44:38.506Z,6.59
2018-12-04T03:47:07.125Z,6.56
2018-12-04T03:49:35.861Z,6.55
2018-12-04T03:52:05.711Z,6.51
2018-12-04T03:54:34.955Z,6.47
2018-12-04T03:57:03.602Z,6.44
2018-12-04T03:59:32.814Z,6.40
2018-12-04T04:02:02.820Z,6.36
2018-12-04T04:04:31.448Z,6.32
2018-12-04T04:07:00.277Z,6.30
2018-12-04T04:09:28.919Z,6.27
2018-12-04T04:11:57.678Z,6.25
2018-12-04T04:14:27.838Z,6.21
2018-12-04T04:16:56.582Z,6.19
2018-12-04T04:19:25.310Z,6.15
2018-12-04T04:21:53.918Z,6.13
2018-12-04T04:24:22.576Z,6.10
2018-12-04T04:26:51.328Z,6.06
2018-12-04T04:29:19.919Z,6.02
2018-12-04T04:31:49.258Z,5.98
2018-12-04T04:34:18.676Z,5.95
2018-12-04T04:36:47.442Z,5.92
2018-12-04T04:39:16.849Z,5.88
2018-12-04T04:41:45.546Z,5.86
2018-12-04T04:44:15.132Z,5.83
2018-12-04T04:46:51.539Z,5.80
2018-12-04T04:49:20.410Z,5.76
2018-12-04T04:51:49.142Z,5.72
2018-12-04T04:54:17.883Z,5.70
2018-12-04T04:56:47.153Z,5.68
2018-12-04T04:59:16.582Z,5.64
2018-12-04T05:01:45.215Z,5.62
2018-12-04T05:04:13.839Z,5.58
2018-12-04T05:06:43.178Z,5.54
2018-12-04T05:09:11.858Z,5.51
2018-12-04T05:11:40.531Z,5.47
2018-12-04T05:14:09.931Z,5.44
2018-12-04T05:16:38.691Z,5.41
2018-12-04T05:19:07.427Z,5.39
2018-12-04T05:21:36.091Z,5.36
2018-12-04T05:24:04.918Z,5.35
2018-12-04T05:26:33.693Z,5.33
2018-12-04T05:29:02.486Z,5.29
2018-12-04T05:31:32.978Z,5.27
2018-12-04T05:34:02.250Z,5.24
2018-12-04T05:36:31.862Z,5.22
2018-12-04T05:39:01.175Z,5.19
2018-12-04T05:41:30.630Z,5.17
2018-12-04T05:43:59.559Z,5.17
2018-12-04T05:46:28.925Z,5.14
2018-12-04T05:48:58.118Z,5.14
2018-12-04T05:51:26.854Z,5.10
2018-12-04T05:53:56.162Z,5.11
2018-12-04T05:56:25.456Z,5.09
2018-12-04T05:58:55.662Z,5.06
2018-12-04T06:01:24.467Z,5.05
2018-12-04T06:03:54.788Z,5.02
2018-12-04T06:06:25.358Z,5.01
2018-12-04T06:08:55.459Z,4.98
2018-12-04T06:11:24.185Z,4.95
2018-12-04T06:13:53.415Z,4.94
2018-12-04T06:16:22.049Z,4.92
2018-12-04T06:18:50.754Z,4.90
2018-12-04T06:21:19.424Z,4.89
2018-12-04T06:23:48.069Z,4.86
2018-12-04T06:26:17.002Z,4.84
2018-12-04T06:28:45.691Z,4.84
2018-12-04T06:31:14.377Z,4.83
2018-12-04T06:33:42.993Z,4.84
2018-12-04T06:36:11.809Z,4.84
2018-12-04T06:38:40.430Z,4.85
2018-12-04T06:41:09.126Z,4.86
2018-12-04T06:43:38.339Z,4.86
2018-12-04T06:46:07.866Z,4.87
2018-12-04T06:48:37.478Z,4.89
2018-12-04T06:51:06.252Z,4.90
2018-12-04T06:53:34.871Z,4.91
2018-12-04T06:56:03.498Z,4.92
2018-12-04T06:58:32.999Z,4.93
2018-12-04T07:01:01.607Z,4.93
2018-12-04T07:03:30.235Z,4.93
2018-12-04T07:05:58.848Z,4.94
2018-12-04T07:08:27.454Z,4.94
2018-12-04T07:10:56.211Z,4.96
2018-12-04T07:13:24.834Z,4.98
2018-12-04T07:15:53.453Z,4.98
2018-12-04T07:18:22.075Z,4.97
2018-12-04T07:20:50.703Z,4.97
2018-12-04T07:23:19.306Z,4.97
2018-12-04T07:25:47.931Z,4.94
2018-12-04T07:28:16.546Z,4.92
2018-12-04T07:30:45.171Z,4.88
2018-12-04T07:33:14.022Z,4.86
2018-12-04T07:35:42.650Z,4.83
2018-12-04T07:38:11.300Z,4.81
2018-12-04T07:40:39.920Z,4.79
2018-12-04T07:43:09.442Z,4.79
2018-12-04T07:45:38.230Z,4.77
2018-12-04T07:48:06.879Z,4.75
2018-12-04T07:50:35.513Z,4.75
2018-12-04T07:53:04.172Z,4.73
2018-12-04T07:55:32.795Z,4.72
2018-12-04T07:58:01.414Z,4.71
2018-12-04T08:00:30.047Z,4.68
2018-12-04T08:02:58.705Z,4.67
2018-12-04T08:05:27.449Z,4.64
2018-12-04T08:07:56.112Z,4.62
2018-12-04T08:10:24.781Z,4.62
2018-12-04T08:12:53.436Z,4.60
2018-12-04T08:15:22.086Z,4.58
2018-12-04T08:17:50.734Z,4.57
2018-12-04T08:20:19.390Z,4.55
2018-12-04T08:22:48.032Z,4.54
2018-12-04T08:25:16.715Z,4.54
2018-12-04T08:27:45.332Z,4.52
2018-12-04T08:30:14.013Z,4.53
2018-12-04T08:32:42.636Z,4.54
2018-12-04T08:35:11.604Z,4.56
2018-12-04T08:37:40.229Z,4.59
2018-12-04T08:40:09.185Z,4.61
2018-12-04T08:42:37.798Z,4.64
2018-12-04T08:45:08.250Z,4.67
2018-12-04T08:47:36.873Z,4.70
2018-12-04T08:50:06.690Z,4.72
2018-12-04T08:52:35.385Z,4.74
2018-12-04T08:55:04.155Z,4.77
2018-12-04T08:57:32.787Z,4.81
2018-12-04T09:00:01.461Z,4.84
2018-12-04T09:02:30.098Z,4.86
2018-12-04T09:04:58.739Z,4.89
2018-12-04T09:07:27.362Z,4.92
2018-12-04T09:09:56.018Z,4.94
2018-12-04T09:12:24.686Z,4.97
2018-12-04T09:14:53.388Z,5.02
2018-12-04T09:17:22.083Z,5.06
2018-12-04T09:19:50.750Z,5.09
2018-12-04T09:22:19.557Z,5.13
2018-12-04T09:24:48.879Z,5.17
2018-12-04T09:27:17.543Z,5.20
2018-12-04T09:29:46.319Z,5.23
2018-12-04T09:32:14.982Z,5.25
2018-12-04T09:34:43.650Z,5.28
2018-12-04T09:37:12.283Z,5.31
2018-12-04T09:39:40.935Z,5.36
2018-12-04T09:42:09.576Z,5.42
2018-12-04T09:44:38.231Z,5.50
2018-12-04T09:47:07.600Z,5.59
2018-12-04T09:49:36.282Z,5.66
2018-12-04T09:52:05.075Z,5.75
2018-12-04T09:54:33.916Z,5.83
2018-12-04T09:57:02.588Z,5.90
2018-12-04T09:59:31.233Z,5.96
2018-12-04T10:01:59.870Z,6.06
2018-12-04T10:04:28.490Z,6.13
2018-12-04T10:06:57.134Z,6.21
2018-12-04T10:09:25.837Z,6.29
2018-12-04T10:11:55.334Z,6.37
2018-12-04T10:14:23.996Z,6.46
2018-12-04T10:16:52.647Z,6.54
2018-12-04T10:19:21.300Z,6.62
2018-12-04T10:21:49.989Z,6.71
2018-12-04T10:24:18.622Z,6.82
2018-12-04T10:26:51.380Z,6.94
2018-12-04T10:29:19.990Z,7.05
2018-12-04T10:31:55.811Z,7.15
2018-12-04T10:34:19.254Z,7.24
2018-12-04T10:36:47.926Z,7.32
2018-12-04T10:39:16.589Z,7.38
2018-12-04T10:41:45.464Z,7.45
2018-12-04T10:44:14.084Z,7.50
2018-12-04T10:46:42.730Z,7.57
2018-12-04T10:49:11.377Z,7.63
2018-12-04T10:51:40.017Z,7.69
2018-12-04T10:54:08.633Z,7.78
2018-12-04T10:56:37.302Z,7.87
2018-12-04T10:59:05.975Z,7.92
2018-12-04T11:01:39.818Z,7.96
2018-12-04T11:04:08.462Z,8.00
2018-12-04T11:06:37.134Z,8.05
2018-12-04T11:09:08.575Z,8.09
2018-12-04T11:11:37.264Z,8.12
2018-12-04T11:14:05.935Z,8.14
2018-12-04T11:16:34.560Z,8.16
2018-12-04T11:19:03.205Z,8.17
2018-12-04T11:21:31.852Z,8.16
2018-12-04T11:24:00.483Z,8.16
2018-12-04T11:26:29.582Z,8.16
2018-12-04T11:28:58.246Z,8.17
2018-12-04T11:31:26.867Z,8.18
2018-12-04T11:33:55.518Z,8.18
2018-12-04T11:36:24.182Z,8.18
2018-12-04T11:38:52.828Z,8.16
2018-12-04T11:41:21.469Z,8.16
2018-12-04T11:43:50.111Z,8.14
2018-12-04T11:46:18.755Z,8.13
2018-12-04T11:48:47.416Z,8.12
2018-12-04T11:51:16.055Z,8.13
2018-12-04T11:53:44.699Z,8.11
2018-12-04T11:56:13.335Z,8.12
2018-12-04T11:58:41.987Z,8.12
2018-12-04T12:01:12.707Z,8.14
2018-12-04T12:03:41.330Z,8.15
2018-12-04T12:06:09.945Z,8.17
2018-12-04T12:08:38.582Z,8.15
2018-12-04T12:11:07.207Z,8.17
2018-12-04T12:13:35.860Z,8.16
2018-12-04T12:16:04.558Z,8.15
2018-12-04T12:18:33.180Z,8.13
2018-12-04T12:21:01.852Z,8.13
2018-12-04T12:23:30.492Z,8.12
2018-12-04T12:25:59.136Z,8.09
2018-12-04T12:28:27.766Z,8.07
2018-12-04T12:30:56.418Z,8.05
2018-12-04T12:33:25.137Z,8.03
2018-12-04T12:35:53.868Z,8.02
2018-12-04T12:38:22.579Z,8.01
2018-12-04T12:40:51.250Z,8.01
2018-12-04T12:43:19.985Z,7.99
2018-12-04T12:45:48.615Z,7.96
2018-12-04T12:48:17.345Z,7.94
2018-12-04T12:50:46.058Z,7.94
2018-12-04T12:53:14.750Z,7.95
2018-12-04T12:55:43.367Z,7.95
2018-12-04T12:58:12.001Z,7.98
2018-12-04T13:00:40.781Z,8.01
2018-12-04T13:03:09.655Z,8.01
2018-12-04T13:05:38.291Z,8.00
2018-12-04T13:08:06.921Z,7.98
2018-12-04T13:10:35.554Z,7.96
2018-12-04T13:13:04.230Z,7.94
2018-12-04T13:15:32.889Z,7.91
2018-12-04T13:18:01.581Z,7.89
2018-12-04T13:20:30.271Z,7.85
2018-12-04T13:22:58.929Z,7.82
2018-12-04T13:25:27.705Z,7.79
2018-12-04T13:27:56.342Z,7.77
2018-12-04T13:30:25.122Z,7.74
2018-12-04T13:32:53.793Z,7.73
2018-12-04T13:35:22.448Z,7.72
2018-12-04T13:37:51.105Z,7.70
2018-12-04T13:40:19.784Z,7.70
2018-12-04T13:42:48.452Z,7.70
2018-12-04T13:45:17.250Z,7.69
2018-12-04T13:47:45.919Z,7.68
2018-12-04T13:50:15.229Z,7.69
2018-12-04T13:52:43.976Z,7.69
2018-12-04T13:55:12.659Z,7.67
2018-12-04T13:57:41.465Z,7.66
2018-12-04T14:00:10.499Z,7.67
2018-12-04T14:02:39.277Z,7.67
2018-12-04T14:05:09.080Z,7.65
2018-12-04T14:07:37.871Z,7.66
2018-12-04T14:10:08.594Z,7.66
2018-12-04T14:12:37.389Z,7.67
2018-12-04T14:15:06.599Z,7.65
2018-12-04T14:17:35.403Z,7.68
2018-12-04T14:20:05.224Z,7.66
2018-12-04T14:22:33.859Z,7.68
2018-12-04T14:25:02.546Z,7.68
2018-12-04T14:27:31.326Z,7.68
2018-12-04T14:29:59.990Z,7.68
2018-12-04T14:32:28.698Z,7.68
2018-12-04T14:34:57.367Z,7.68
2018-12-04T14:37:26.005Z,7.67
2018-12-04T14:39:54.671Z,7.68
2018-12-04T14:42:23.423Z,7.67
2018-12-04T14:44:52.102Z,7.66
2018-12-04T14:47:20.744Z,7.65
2018-12-04T14:49:49.510Z,7.66
2018-12-04T14:52:18.171Z,7.64
2018-12-04T14:54:46.852Z,7.64
2018-12-04T14:57:15.622Z,7.63
2018-12-04T14:59:44.944Z,7.64
2018-12-04T15:02:13.595Z,7.63
2018-12-04T15:04:42.441Z,7.63
2018-12-04T15:07:11.149Z,7.64
2018-12-04T15:09:39.894Z,7.64
2018-12-04T15:12:08.576Z,7.65
2018-12-04T15:14:37.237Z,7.65
2018-12-04T15:17:05.879Z,7.65
2018-12-04T15:19:34.512Z,7.65
2018-12-04T15:22:03.336Z,7.63
2018-12-04T15:24:32.078Z,7.63
2018-12-04T15:27:00.728Z,7.62
2018-12-04T15:29:29.377Z,7.61
2018-12-04T15:31:58.239Z,7.60
2018-12-04T15:34:27.008Z,7.60
2018-12-04T15:36:56.638Z,7.60
2018-12-04T15:39:25.629Z,7.58
2018-12-04T15:41:54.549Z,7.58
2018-12-04T15:44:23.221Z,7.56
2018-12-04T15:46:51.971Z,7.57
2018-12-04T15:49:20.635Z,7.57
2018-12-04T15:51:49.435Z,7.56
2018-12-04T15:54:18.179Z,7.56
2018-12-04T15:56:46.897Z,7.53
2018-12-04T15:59:15.530Z,7.54
2018-12-04T16:01:44.239Z,7.54
2018-12-04T16:04:12.887Z,7.52
2018-12-04T16:06:41.526Z,7.52
2018-12-04T16:09:10.186Z,7.51
2018-12-04T16:11:38.830Z,7.52
2018-12-04T16:14:07.507Z,7.51
2018-12-04T16:16:36.204Z,7.52
2018-12-04T16:19:05.014Z,7.52
2018-12-04T16:21:33.658Z,7.53
2018-12-04T16:24:02.320Z,7.52
2018-12-04T16:26:31.013Z,7.53
2018-12-04T16:28:59.734Z,7.54
2018-12-04T16:31:28.368Z,7.54
2018-12-04T16:33:57.035Z,7.55
2018-12-04T16:36:25.690Z,7.55
2018-12-04T16:38:54.323Z,7.57
2018-12-04T16:41:23.010Z,7.57
2018-12-04T16:43:51.675Z,7.57
2018-12-04T16:46:20.314Z,7.58
2018-12-04T16:48:49.058Z,7.59
2018-12-04T16:51:17.795Z,7.58
2018-12-04T16:53:46.487Z,7.58
2018-12-04T16:56:15.164Z,7.58
2018-12-04T16:58:43.839Z,7.59
2018-12-04T17:01:12.494Z,7.59
2018-12-04T17:03:41.166Z,7.59
2018-12-04T17:06:09.870Z,7.58
2018-12-04T17:08:38.509Z,7.59
2018-12-04T17:11:07.175Z,7.59
2018-12-04T17:13:35.814Z,7.58
2018-12-04T17:16:04.469Z,7.58
2018-12-04T17:18:37.707Z,7.58
2018-12-04T17:21:03.875Z,7.59
2018-12-04T17:23:32.525Z,7.58
2018-12-04T17:26:01.244Z,7.59
2018-12-04T17:28:29.881Z,7.59
2018-12-04T17:30:58.591Z,7.59
2018-12-04T17:33:27.232Z,7.59
2018-12-04T17:35:55.863Z,7.59
2018-12-04T17:38:24.654Z,7.60
2018-12-04T17:40:53.292Z,7.59
2018-12-04T17:43:21.927Z,7.60
2018-12-04T17:45:50.534Z,7.60
2018-12-04T17:48:19.291Z,7.59
2018-12-04T17:50:47.938Z,7.60
2018-12-04T17:53:16.565Z,7.60
2018-12-04T17:55:45.252Z,7.61
2018-12-04T17:58:13.862Z,7.60
2018-12-04T18:00:42.522Z,7.61
2018-12-04T18:03:11.173Z,7.61
2018-12-04T18:05:39.979Z,7.62
2018-12-04T18:08:08.666Z,7.62
2018-12-04T18:10:37.320Z,7.64
2018-12-04T18:13:05.958Z,7.63
2018-12-04T18:15:34.650Z,7.63
2018-12-04T18:18:03.357Z,7.63
2018-12-04T18:20:32.026Z,7.64
2018-12-04T18:23:00.715Z,7.65
2018-12-04T18:25:29.407Z,7.65
2018-12-04T18:27:58.080Z,7.65
2018-12-04T18:30:26.786Z,7.67
2018-12-04T18:32:55.533Z,7.68
2018-12-04T18:35:24.350Z,7.66
2018-12-04T18:37:53.035Z,7.66
2018-12-04T18:40:21.719Z,7.66
2018-12-04T18:42:50.426Z,7.65
2018-12-04T18:45:19.066Z,7.64
2018-12-04T18:47:47.718Z,7.64
2018-12-04T18:50:16.491Z,7.63
2018-12-04T18:52:45.135Z,7.62
2018-12-04T18:55:19.442Z,7.62
2018-12-04T18:57:48.834Z,7.61
2018-12-04T19:00:17.494Z,7.60
2018-12-04T19:02:46.387Z,7.64
2018-12-04T19:05:15.199Z,7.64
2018-12-04T19:07:43.858Z,7.64
2018-12-04T19:10:12.791Z,7.65
2018-12-04T19:12:41.615Z,7.66
2018-12-04T19:15:12.398Z,7.67
2018-12-04T19:17:41.032Z,7.67
2018-12-04T19:20:09.899Z,7.70
2018-12-04T19:22:38.619Z,7.70
2018-12-04T19:25:07.589Z,7.72
2018-12-04T19:27:36.402Z,7.73
2018-12-04T19:30:06.833Z,7.75
2018-12-04T19:32:35.463Z,7.76
2018-12-04T19:35:04.323Z,7.78
2018-12-04T19:37:32.975Z,7.79
2018-12-04T19:40:01.635Z,7.81
2018-12-04T19:42:30.306Z,7.81
2018-12-04T19:44:59.670Z,7.82
2018-12-04T19:47:28.350Z,7.85
2018-12-04T19:49:57.052Z,7.85
2018-12-04T19:52:25.693Z,7.87
2018-12-04T19:54:54.364Z,7.88
2018-12-04T19:57:23.007Z,7.90
2018-12-04T19:59:51.786Z,7.90
2018-12-04T20:02:20.565Z,7.92
2018-12-04T20:04:49.227Z,7.92
2018-12-04T20:07:17.897Z,7.93
2018-12-04T20:09:46.543Z,7.93
2018-12-04T20:12:15.212Z,7.95
2018-12-04T20:14:43.851Z,7.96
2018-12-04T20:17:12.491Z,7.97
2018-12-04T20:19:41.146Z,7.99
2018-12-04T20:22:09.760Z,8.00
2018-12-04T20:24:38.428Z,8.01
2018-12-04T20:27:07.059Z,8.02
2018-12-04T20:29:35.722Z,8.03
2018-12-04T20:32:04.490Z,8.06
2018-12-04T20:34:33.141Z,8.06
2018-12-04T20:37:01.857Z,8.06
2018-12-04T20:39:30.482Z,8.09
2018-12-04T20:41:59.249Z,8.11
2018-12-04T20:44:27.877Z,8.11
2018-12-04T20:46:56.518Z,8.13
2018-12-04T20:49:25.130Z,8.11
2018-12-04T20:51:53.751Z,8.13
2018-12-04T20:54:22.424Z,8.14
2018-12-04T20:56:51.134Z,8.16
2018-12-04T20:59:19.816Z,8.16
2018-12-04T21:01:48.655Z,8.16
2018-12-04T21:04:17.288Z,8.17
2018-12-04T21:06:45.900Z,8.18
2018-12-04T21:09:15.390Z,8.19
2018-12-04T21:11:43.995Z,8.19
2018-12-04T21:14:12.671Z,8.20
2018-12-04T21:16:42.727Z,8.20
2018-12-04T21:19:11.438Z,8.20
2018-12-04T21:21:40.866Z,8.21
2018-12-04T21:24:09.772Z,8.20
2018-12-04T21:26:39.283Z,8.19
2018-12-04T21:29:13.781Z,8.18
2018-12-04T21:31:47.813Z,8.17
2018-12-04T21:35:20.479Z,8.15
2018-12-04T21:37:54.443Z,8.11
2018-12-04T21:40:28.211Z,8.09
2018-12-04T21:43:02.379Z,8.08
2018-12-04T21:45:36.270Z,8.06
2018-12-04T21:48:07.432Z,8.04
2018-12-04T21:50:36.707Z,8.04
2018-12-04T21:53:05.722Z,8.02
2018-12-04T21:55:35.143Z,8.01
2018-12-04T21:58:04.562Z,8.00
2018-12-04T22:00:33.292Z,7.99
2018-12-04T22:03:02.106Z,7.99
2018-12-04T22:05:30.994Z,7.99
2018-12-04T22:07:59.756Z,7.99
2018-12-04T22:10:28.609Z,7.99
2018-12-04T22:12:57.394Z,8.00
2018-12-04T22:15:27.455Z,8.00
2018-12-04T22:17:56.165Z,8.02
2018-12-04T22:20:25.095Z,8.02
2018-12-04T22:22:53.730Z,8.03
2018-12-04T22:25:23.850Z,8.03
2018-12-04T22:27:53.541Z,8.03
2018-12-04T22:30:22.282Z,8.04
2018-12-04T22:32:50.898Z,8.04
2018-12-04T22:35:19.597Z,8.03
2018-12-04T22:37:48.258Z,8.03
2018-12-04T22:40:16.921Z,8.05
2018-12-04T22:42:45.550Z,8.06
2018-12-04T22:45:19.599Z,8.06
2018-12-04T22:47:48.239Z,8.07
2018-12-04T22:50:16.972Z,8.07
2018-12-04T22:52:45.626Z,8.08
2018-12-04T22:55:14.286Z,8.08
2018-12-04T22:57:42.956Z,8.09
2018-12-04T23:00:27.259Z,8.08
2018-12-04T23:02:56.004Z,8.11
2018-12-04T23:05:24.675Z,8.11
2018-12-04T23:07:53.298Z,8.12
2018-12-04T23:10:21.922Z,8.14
2018-12-04T23:12:50.574Z,8.16
2018-12-04T23:15:19.188Z,8.19
2018-12-04T23:17:47.840Z,8.20
2018-12-04T23:20:16.471Z,8.23
2018-12-04T23:22:45.141Z,8.25
2018-12-04T23:25:14.010Z,8.29
2018-12-04T23:27:42.675Z,8.30
2018-12-04T23:30:11.581Z,8.32
2018-12-04T23:32:40.267Z,8.34
2018-12-04T23:35:08.992Z,8.35
2018-12-04T23:37:38.612Z,8.37
2018-12-04T23:40:07.406Z,8.38
2018-12-04T23:42:36.154Z,8.42
2018-12-04T23:45:05.962Z,8.44
2018-12-04T23:47:34.598Z,8.46
2018-12-04T23:50:03.315Z,8.49
2018-12-04T23:52:31.942Z,8.51
2018-12-04T23:55:00.638Z,8.53
2018-12-04T23:57:29.268Z,8.56
2018-12-04T23:59:57.934Z,8.59
